createdAt,value
2022-08-23T00:02:32.575Z,18.30
2022-08-23T00:05:08.977Z,18.20
2022-08-23T00:07:44.158Z,18.20
2022-08-23T00:10:17.558Z,18.20
2022-08-23T00:12:50.473Z,18.20
2022-08-23T00:15:23.680Z,18.20
2022-08-23T00:17:56.560Z,18.20
2022-08-23T00:20:29.145Z,18.20
2022-08-23T00:23:01.974Z,18.20
2022-08-23T00:25:35.064Z,18.20
2022-08-23T00:28:13.677Z,18.20
2022-08-23T00:30:47.676Z,18.20
2022-08-23T00:33:21.441Z,18.20
2022-08-23T00:35:54.085Z,18.20
2022-08-23T00:38:33.956Z,18.20
2022-08-23T00:41:07.648Z,18.20
2022-08-23T00:44:00.852Z,18.20
2022-08-23T00:46:55.113Z,18.20
2022-08-23T00:49:29.847Z,18.20
2022-08-23T00:52:11.716Z,18.20
2022-08-23T00:54:45.700Z,18.30
2022-08-23T00:57:19.896Z,18.30
2022-08-23T00:59:52.604Z,18.30
2022-08-23T01:02:25.376Z,18.30
2022-08-23T01:05:02.531Z,18.30
2022-08-23T01:07:55.545Z,18.30
2022-08-23T01:10:39.741Z,18.30
2022-08-23T01:13:16.783Z,18.30
2022-08-23T01:16:05.966Z,18.40
2022-08-23T01:18:39.631Z,18.40
2022-08-23T01:21:19.867Z,18.40
2022-08-23T01:23:57.774Z,18.40
2022-08-23T01:26:35.151Z,18.50
2022-08-23T01:29:08.182Z,18.40
2022-08-23T01:31:40.939Z,18.40
2022-08-23T01:34:14.698Z,18.40
2022-08-23T01:36:48.307Z,18.40
2022-08-23T01:39:21.214Z,18.40
2022-08-23T01:41:54.171Z,18.30
2022-08-23T01:44:27.361Z,18.20
2022-08-23T01:47:01.274Z,18.20
2022-08-23T01:49:35.113Z,18.20
2022-08-23T01:52:07.846Z,18.10
2022-08-23T01:54:41.330Z,18.10
2022-08-23T01:57:14.258Z,18.10
2022-08-23T01:59:46.831Z,18.10
2022-08-23T02:02:20.087Z,18.10
2022-08-23T02:04:53.134Z,18.10
2022-08-23T02:07:29.593Z,18.00
2022-08-23T02:10:02.711Z,18.00
2022-08-23T02:12:35.835Z,18.00
2022-08-23T02:15:08.818Z,18.00
2022-08-23T02:17:41.755Z,18.00
2022-08-23T02:20:14.494Z,17.90
2022-08-23T02:22:47.158Z,18.00
2022-08-23T02:25:20.155Z,17.90
2022-08-23T02:27:52.871Z,17.90
2022-08-23T02:30:25.407Z,18.00
2022-08-23T02:32:58.391Z,18.00
2022-08-23T02:35:35.377Z,18.00
2022-08-23T02:38:11.644Z,18.00
2022-08-23T02:40:45.158Z,18.10
2022-08-23T02:43:18.393Z,18.10
2022-08-23T02:45:51.839Z,18.20
2022-08-23T02:48:24.638Z,18.20
2022-08-23T02:51:00.953Z,18.20
2022-08-23T02:53:34.263Z,18.20
2022-08-23T02:56:06.935Z,18.20
2022-08-23T02:58:54.963Z,18.30
2022-08-23T03:01:30.787Z,18.30
2022-08-23T03:04:05.547Z,18.30
2022-08-23T03:06:39.047Z,18.30
2022-08-23T03:09:11.826Z,18.30
2022-08-23T03:11:47.243Z,18.30
2022-08-23T03:14:20.426Z,18.30
2022-08-23T03:16:53.630Z,18.30
2022-08-23T03:19:30.960Z,18.30
2022-08-23T03:22:03.602Z,18.40
2022-08-23T03:24:36.738Z,18.30
2022-08-23T03:27:09.316Z,18.40
2022-08-23T03:29:42.007Z,18.40
2022-08-23T03:32:15.534Z,18.40
2022-08-23T03:34:48.534Z,18.40
2022-08-23T03:37:21.381Z,18.50
2022-08-23T03:39:54.211Z,18.40
2022-08-23T03:42:30.796Z,18.50
2022-08-23T03:45:04.916Z,18.50
2022-08-23T03:47:37.707Z,18.50
2022-08-23T03:50:11.631Z,18.50
2022-08-23T03:52:44.297Z,18.50
2022-08-23T03:55:17.383Z,18.50
2022-08-23T03:57:50.133Z,18.50
2022-08-23T04:00:23.179Z,18.60
2022-08-23T04:02:55.745Z,18.50
2022-08-23T04:05:28.973Z,18.50
2022-08-23T04:08:07.670Z,18.60
2022-08-23T04:10:42.338Z,18.60
2022-08-23T04:13:14.882Z,18.60
2022-08-23T04:15:50.052Z,18.60
2022-08-23T04:18:22.822Z,18.70
2022-08-23T04:20:55.933Z,18.60
2022-08-23T04:23:29.142Z,18.70
2022-08-23T04:26:01.905Z,18.80
2022-08-23T04:28:36.527Z,18.80
2022-08-23T04:31:09.309Z,18.90
2022-08-23T04:33:41.865Z,18.90
2022-08-23T04:36:14.597Z,19.00
2022-08-23T04:38:47.233Z,19.00
2022-08-23T04:41:38.525Z,19.00
2022-08-23T04:44:11.045Z,19.10
2022-08-23T04:46:44.618Z,19.20
2022-08-23T04:49:18.529Z,19.30
2022-08-23T04:51:52.828Z,19.40
2022-08-23T04:54:27.074Z,19.40
2022-08-23T04:56:59.874Z,19.40
2022-08-23T04:59:32.429Z,19.50
2022-08-23T05:02:05.500Z,19.60
2022-08-23T05:04:38.101Z,19.60
2022-08-23T05:07:10.983Z,19.70
2022-08-23T05:09:43.579Z,19.80
2022-08-23T05:12:16.318Z,19.80
2022-08-23T05:14:48.881Z,19.80
2022-08-23T05:17:22.586Z,19.90
2022-08-23T05:19:55.142Z,20.00
2022-08-23T05:22:27.888Z,20.10
2022-08-23T05:25:00.642Z,20.20
2022-08-23T05:27:33.726Z,20.20
2022-08-23T05:30:08.070Z,20.30
2022-08-23T05:32:47.895Z,20.40
2022-08-23T05:35:20.829Z,20.40
2022-08-23T05:37:53.888Z,20.40
2022-08-23T05:40:28.171Z,20.50
2022-08-23T05:43:00.927Z,20.50
2022-08-23T05:45:33.504Z,20.60
2022-08-23T05:48:06.863Z,20.60
2022-08-23T05:50:40.074Z,20.60
2022-08-23T05:53:12.957Z,20.60
2022-08-23T05:55:46.213Z,20.60
2022-08-23T05:58:19.021Z,20.60
2022-08-23T06:00:51.560Z,20.70
2022-08-23T06:03:24.341Z,20.70
2022-08-23T06:06:00.930Z,20.80
2022-08-23T06:08:35.220Z,20.80
2022-08-23T06:11:11.021Z,20.90
2022-08-23T06:13:47.652Z,21.00
2022-08-23T06:16:23.981Z,21.00
2022-08-23T06:18:58.116Z,21.00
2022-08-23T06:21:32.232Z,20.90
2022-08-23T06:24:05.369Z,20.90
2022-08-23T06:26:42.323Z,20.90
2022-08-23T06:29:19.088Z,20.90
2022-08-23T06:31:53.123Z,20.90
2022-08-23T06:34:36.396Z,21.00
2022-08-23T06:37:14.611Z,21.10
2022-08-23T06:39:47.579Z,21.10
2022-08-23T06:42:38.290Z,21.10
2022-08-23T06:45:11.844Z,21.10
2022-08-23T06:47:44.398Z,21.20
2022-08-23T06:50:19.436Z,21.20
2022-08-23T06:52:53.051Z,21.30
2022-08-23T06:55:27.093Z,21.40
2022-08-23T06:57:59.872Z,21.50
2022-08-23T07:00:32.954Z,21.60
2022-08-23T07:03:05.524Z,21.80
2022-08-23T07:05:46.030Z,21.90
2022-08-23T07:08:18.706Z,21.90
2022-08-23T07:10:57.594Z,22.00
2022-08-23T07:13:33.093Z,22.20
2022-08-23T07:16:06.738Z,22.40
2022-08-23T07:18:39.493Z,22.40
2022-08-23T07:21:14.922Z,22.50
2022-08-23T07:23:47.503Z,22.50
2022-08-23T07:26:21.583Z,22.50
2022-08-23T07:28:57.570Z,22.60
2022-08-23T07:31:33.401Z,22.50
2022-08-23T07:34:08.860Z,22.70
2022-08-23T07:36:43.918Z,22.70
2022-08-23T07:39:47.411Z,22.80
2022-08-23T07:42:23.642Z,22.90
2022-08-23T07:44:57.608Z,23.10
2022-08-23T07:47:31.500Z,23.20
2022-08-23T07:50:04.364Z,23.20
2022-08-23T07:52:37.196Z,23.30
2022-08-23T07:55:10.028Z,23.30
2022-08-23T07:57:42.780Z,23.30
2022-08-23T08:00:15.875Z,23.20
2022-08-23T08:02:48.642Z,23.20
2022-08-23T08:05:21.992Z,23.20
2022-08-23T08:07:55.048Z,23.10
2022-08-23T08:10:27.965Z,23.10
2022-08-23T08:13:00.691Z,23.20
2022-08-23T08:15:33.583Z,23.30
2022-08-23T08:18:06.431Z,23.50
2022-08-23T08:20:44.193Z,23.60
2022-08-23T08:23:18.054Z,23.60
2022-08-23T08:26:01.255Z,23.60
2022-08-23T08:28:35.717Z,23.70
2022-08-23T08:31:09.464Z,24.10
2022-08-23T08:33:42.461Z,24.50
2022-08-23T08:36:35.378Z,24.90
2022-08-23T08:39:12.771Z,25.20
2022-08-23T08:42:03.985Z,25.20
2022-08-23T08:45:05.504Z,25.10
2022-08-23T08:47:42.510Z,25.00
2022-08-23T08:50:26.611Z,25.00
2022-08-23T08:53:32.556Z,25.10
2022-08-23T08:56:21.134Z,25.10
2022-08-23T08:59:03.427Z,25.10
2022-08-23T09:01:38.396Z,25.30
2022-08-23T09:04:11.509Z,25.70
2022-08-23T09:07:25.913Z,26.00
2022-08-23T09:10:09.481Z,26.40
2022-08-23T09:13:11.677Z,26.90
2022-08-23T09:16:49.529Z,26.80
2022-08-23T09:19:25.128Z,26.40
2022-08-23T09:22:13.489Z,26.30
2022-08-23T09:24:46.465Z,26.00
2022-08-23T09:27:19.674Z,26.00
2022-08-23T09:30:01.245Z,25.90
2022-08-23T09:32:36.604Z,25.80
2022-08-23T09:35:19.047Z,25.90
2022-08-23T09:37:59.448Z,26.00
2022-08-23T09:40:44.559Z,26.20
2022-08-23T09:43:28.481Z,26.40
2022-08-23T09:46:02.436Z,26.80
2022-08-23T09:48:43.467Z,27.00
2022-08-23T09:51:18.851Z,27.10
2022-08-23T09:54:08.493Z,27.20
2022-08-23T09:56:47.048Z,27.10
2022-08-23T09:59:40.108Z,26.90
2022-08-23T10:02:21.971Z,26.80
2022-08-23T10:04:57.360Z,26.80
2022-08-23T10:07:36.159Z,26.80
2022-08-23T10:10:31.569Z,27.00
2022-08-23T10:13:05.889Z,27.20
2022-08-23T10:15:58.083Z,27.40
2022-08-23T10:18:52.553Z,27.70
2022-08-23T10:21:47.335Z,27.90
2022-08-23T10:24:28.295Z,28.10
2022-08-23T10:27:38.802Z,28.20
2022-08-23T10:30:22.595Z,28.20
2022-08-23T10:33:18.506Z,28.00
2022-08-23T10:36:06.603Z,28.00
2022-08-23T10:38:49.448Z,27.70
2022-08-23T10:41:31.316Z,27.60
2022-08-23T10:44:25.582Z,27.60
2022-08-23T10:47:27.670Z,27.60
2022-08-23T10:50:07.358Z,27.60
2022-08-23T10:53:08.560Z,27.60
2022-08-23T10:56:03.209Z,27.70
2022-08-23T10:58:52.027Z,27.80
2022-08-23T11:01:50.585Z,28.00
2022-08-23T11:04:48.024Z,28.20
2022-08-23T11:07:27.835Z,28.50
2022-08-23T11:10:17.360Z,28.60
2022-08-23T11:13:10.143Z,28.70
2022-08-23T11:15:45.232Z,28.60
2022-08-23T11:18:46.981Z,28.70
2022-08-23T11:21:25.929Z,28.70
2022-08-23T11:23:58.568Z,28.80
2022-08-23T11:26:38.130Z,28.80
2022-08-23T11:29:10.977Z,28.90
2022-08-23T11:31:50.708Z,29.20
2022-08-23T11:34:28.970Z,29.40
2022-08-23T11:37:20.859Z,29.40
2022-08-23T11:39:59.289Z,29.40
2022-08-23T11:42:38.214Z,29.20
2022-08-23T11:45:27.355Z,29.20
2022-08-23T11:48:22.708Z,29.00
2022-08-23T11:51:04.476Z,29.00
2022-08-23T11:53:54.872Z,29.10
2022-08-23T11:56:30.491Z,29.30
2022-08-23T11:59:08.698Z,29.40
2022-08-23T12:01:42.698Z,29.60
2022-08-23T12:04:37.933Z,29.70
2022-08-23T12:07:13.361Z,29.90
2022-08-23T12:09:53.715Z,30.10
2022-08-23T12:12:33.671Z,30.30
2022-08-23T12:15:12.352Z,30.20
2022-08-23T12:17:46.012Z,29.90
2022-08-23T12:20:30.237Z,29.70
2022-08-23T12:23:22.164Z,29.40
2022-08-23T12:26:08.903Z,29.20
2022-08-23T12:28:48.006Z,28.90
2022-08-23T12:31:38.810Z,28.70
2022-08-23T12:34:11.351Z,28.40
2022-08-23T12:36:57.238Z,28.30
2022-08-23T12:39:37.331Z,28.30
2022-08-23T12:42:15.729Z,28.10
2022-08-23T12:45:05.510Z,28.20
2022-08-23T12:47:43.053Z,28.10
2022-08-23T12:50:15.693Z,28.00
2022-08-23T12:52:58.352Z,27.90
2022-08-23T12:55:34.565Z,27.70
2022-08-23T12:58:08.789Z,27.60
2022-08-23T13:00:51.657Z,27.40
2022-08-23T13:03:34.062Z,27.30
2022-08-23T13:06:14.043Z,27.20
2022-08-23T13:08:57.799Z,27.10
2022-08-23T13:11:34.011Z,26.80
2022-08-23T13:14:31.069Z,26.70
2022-08-23T13:17:16.638Z,26.40
2022-08-23T13:20:10.728Z,26.10
2022-08-23T13:23:03.870Z,25.80
2022-08-23T13:25:39.887Z,25.50
2022-08-23T13:28:25.772Z,25.10
2022-08-23T13:31:08.635Z,24.70
2022-08-23T13:33:41.333Z,24.40
2022-08-23T13:36:19.834Z,24.30
2022-08-23T13:38:54.123Z,24.10
2022-08-23T13:41:38.424Z,24.00
2022-08-23T13:44:15.666Z,23.90
2022-08-23T13:46:51.393Z,23.80
2022-08-23T13:49:28.644Z,23.60
2022-08-23T13:52:41.308Z,23.60
2022-08-23T13:54:53.891Z,23.50
2022-08-23T13:57:30.042Z,23.30
2022-08-23T14:00:04.352Z,23.20
2022-08-23T14:02:38.427Z,23.10
2022-08-23T14:05:12.107Z,23.10
2022-08-23T14:07:47.775Z,23.10
2022-08-23T14:10:22.935Z,23.00
2022-08-23T14:12:56.211Z,23.00
2022-08-23T14:18:22.189Z,23.00
2022-08-23T14:20:54.925Z,22.90
2022-08-23T14:23:27.746Z,22.90
2022-08-23T14:26:00.314Z,22.90
2022-08-23T14:28:33.101Z,22.90
2022-08-23T14:31:06.281Z,22.90
2022-08-23T14:33:39.550Z,22.80
2022-08-23T14:36:12.708Z,22.70
2022-08-23T14:38:45.640Z,22.70
2022-08-23T14:41:25.497Z,22.70
2022-08-23T14:43:58.327Z,22.70
2022-08-23T14:46:31.191Z,22.70
2022-08-23T14:49:03.929Z,22.70
2022-08-23T14:51:44.797Z,22.70
2022-08-23T14:54:25.285Z,22.60
2022-08-23T14:56:58.422Z,22.60
2022-08-23T14:59:31.197Z,22.60
2022-08-23T15:02:05.105Z,22.60
2022-08-23T15:04:39.459Z,22.50
2022-08-23T15:07:18.184Z,22.50
2022-08-23T15:09:56.433Z,22.40
2022-08-23T15:15:22.303Z,22.40
2022-08-23T15:18:00.515Z,22.30
2022-08-23T15:20:37.627Z,22.30
2022-08-23T15:23:10.184Z,22.30
2022-08-23T15:25:44.361Z,22.40
2022-08-23T15:28:18.973Z,22.30
2022-08-23T15:30:52.894Z,22.30
2022-08-23T15:33:26.777Z,22.20
2022-08-23T15:36:02.067Z,22.20
2022-08-23T15:38:37.254Z,21.80
2022-08-23T15:41:10.647Z,21.50
2022-08-23T15:43:44.529Z,21.20
2022-08-23T15:46:21.833Z,20.90
2022-08-23T15:49:16.198Z,20.70
2022-08-23T15:51:51.230Z,20.50
2022-08-23T15:54:23.902Z,20.50
2022-08-23T15:56:56.854Z,20.30
2022-08-23T15:59:31.536Z,20.30
2022-08-23T16:02:05.071Z,20.30
2022-08-23T16:04:38.019Z,20.20
2022-08-23T16:07:15.723Z,20.30
2022-08-23T16:09:48.457Z,20.20
2022-08-23T16:12:24.237Z,20.20
2022-08-23T16:14:56.967Z,20.10
2022-08-23T16:17:29.772Z,20.10
2022-08-23T16:20:03.100Z,20.00
2022-08-23T16:22:36.219Z,20.00
2022-08-23T16:25:09.174Z,20.10
2022-08-23T16:27:42.102Z,20.10
2022-08-23T16:30:15.046Z,20.10
2022-08-23T16:32:47.838Z,20.20
2022-08-23T16:35:20.676Z,20.10
2022-08-23T16:37:54.656Z,20.10
2022-08-23T16:40:27.368Z,20.00
2022-08-23T16:43:00.933Z,20.00
2022-08-23T16:45:33.738Z,20.00
2022-08-23T16:48:06.874Z,20.00
2022-08-23T16:50:39.465Z,19.90
2022-08-23T16:53:12.782Z,19.80
2022-08-23T16:55:45.406Z,19.80
2022-08-23T16:58:18.282Z,19.90
2022-08-23T17:00:52.934Z,19.80
2022-08-23T17:03:27.230Z,19.80
2022-08-23T17:05:59.910Z,19.70
2022-08-23T17:08:37.064Z,19.70
2022-08-23T17:11:18.592Z,19.70
2022-08-23T17:13:51.534Z,19.70
2022-08-23T17:16:24.495Z,19.70
2022-08-23T17:19:00.534Z,19.70
2022-08-23T17:21:33.103Z,19.70
2022-08-23T17:24:06.600Z,19.60
2022-08-23T17:26:39.695Z,19.50
2022-08-23T17:29:12.568Z,19.50
2022-08-23T17:31:45.180Z,19.50
2022-08-23T17:34:17.994Z,19.50
2022-08-23T17:36:53.243Z,19.50
2022-08-23T17:39:29.312Z,19.60
2022-08-23T17:42:01.898Z,19.60
2022-08-23T17:44:35.577Z,19.60
2022-08-23T17:47:15.271Z,19.60
2022-08-23T17:49:49.387Z,19.60
2022-08-23T17:52:23.079Z,19.60
2022-08-23T17:54:56.068Z,19.60
2022-08-23T17:57:28.783Z,19.60
2022-08-23T18:00:07.579Z,19.60
2022-08-23T18:02:40.582Z,19.60
2022-08-23T18:05:16.563Z,19.50
2022-08-23T18:07:49.151Z,19.50
2022-08-23T18:10:22.333Z,19.40
2022-08-23T18:12:56.032Z,19.50
2022-08-23T18:15:31.309Z,19.50
2022-08-23T18:18:04.674Z,19.50
2022-08-23T18:20:37.590Z,19.40
2022-08-23T18:23:15.570Z,19.40
2022-08-23T18:25:51.613Z,19.50
2022-08-23T18:28:31.954Z,19.40
2022-08-23T18:31:15.690Z,19.50
2022-08-23T18:36:48.820Z,19.50
2022-08-23T18:39:27.639Z,19.40
2022-08-23T18:42:06.397Z,19.50
2022-08-23T18:44:39.055Z,19.50
2022-08-23T18:47:11.791Z,19.50
2022-08-23T18:49:45.773Z,19.50
2022-08-23T18:52:18.865Z,19.50
2022-08-23T18:54:51.474Z,19.60
2022-08-23T18:57:24.274Z,19.60
2022-08-23T18:59:56.861Z,19.60
2022-08-23T19:02:32.106Z,19.70
2022-08-23T19:05:05.319Z,19.70
2022-08-23T19:07:38.100Z,19.70
2022-08-23T19:10:10.905Z,19.70
2022-08-23T19:12:51.860Z,19.70
2022-08-23T19:15:29.600Z,19.70
2022-08-23T19:18:28.033Z,19.60
2022-08-23T19:21:03.730Z,19.70
2022-08-23T19:23:36.571Z,19.70
2022-08-23T19:26:10.910Z,19.60
2022-08-23T19:28:44.239Z,19.60
2022-08-23T19:31:17.292Z,19.70
2022-08-23T19:33:51.083Z,19.60
2022-08-23T19:36:45.229Z,19.70
2022-08-23T19:39:17.921Z,19.70
2022-08-23T19:41:50.567Z,19.60
2022-08-23T19:44:23.616Z,19.60
2022-08-23T19:46:56.377Z,19.70
2022-08-23T19:49:31.167Z,19.60
2022-08-23T19:52:04.591Z,19.70
2022-08-23T19:54:37.683Z,19.70
2022-08-23T19:57:11.537Z,19.70
2022-08-23T19:59:44.731Z,19.70
2022-08-23T20:02:17.401Z,19.70
2022-08-23T20:04:51.846Z,19.70
2022-08-23T20:07:24.475Z,19.70
2022-08-23T20:09:57.328Z,19.60
2022-08-23T20:12:29.950Z,19.70
2022-08-23T20:15:03.438Z,19.70
2022-08-23T20:17:37.051Z,19.70
2022-08-23T20:20:14.975Z,19.70
2022-08-23T20:23:06.034Z,19.70
2022-08-23T20:25:38.784Z,19.70
2022-08-23T20:28:11.827Z,19.70
2022-08-23T20:30:44.523Z,19.60
2022-08-23T20:33:17.039Z,19.60
2022-08-23T20:35:49.785Z,19.60
2022-08-23T20:38:33.009Z,19.60
2022-08-23T20:41:07.125Z,19.50
2022-08-23T20:43:40.005Z,19.50
2022-08-23T20:46:12.811Z,19.50
2022-08-23T20:48:45.868Z,19.40
2022-08-23T20:51:19.924Z,19.40
2022-08-23T20:53:54.296Z,19.40
2022-08-23T20:56:28.888Z,19.40
2022-08-23T20:59:01.560Z,19.40
2022-08-23T21:01:34.967Z,19.40
2022-08-23T21:04:07.560Z,19.30
2022-08-23T21:06:54.596Z,19.30
2022-08-23T21:09:29.600Z,19.30
2022-08-23T21:12:02.864Z,19.30
2022-08-23T21:14:35.522Z,19.30
2022-08-23T21:17:08.278Z,19.30
2022-08-23T21:19:41.009Z,19.30
2022-08-23T21:22:13.837Z,19.30
2022-08-23T21:24:46.372Z,19.20
2022-08-23T21:27:21.701Z,19.20
2022-08-23T21:29:54.407Z,19.20
2022-08-23T21:32:27.220Z,19.20
2022-08-23T21:35:00.040Z,19.30
2022-08-23T21:37:32.814Z,19.30
2022-08-23T21:40:06.024Z,19.30
2022-08-23T21:42:38.890Z,19.30
2022-08-23T21:45:11.403Z,19.30
2022-08-23T21:47:44.161Z,19.30
2022-08-23T21:50:17.622Z,19.30
2022-08-23T21:52:56.554Z,19.30
2022-08-23T21:55:30.164Z,19.40
2022-08-23T21:58:10.177Z,19.30
2022-08-23T22:00:44.715Z,19.30
2022-08-23T22:03:17.592Z,19.30
2022-08-23T22:05:50.397Z,19.30
2022-08-23T22:08:23.341Z,19.30
2022-08-23T22:10:57.650Z,19.30
2022-08-23T22:13:32.506Z,19.30
2022-08-23T22:16:07.147Z,19.30
2022-08-23T22:18:40.018Z,19.30
2022-08-23T22:21:13.122Z,19.30
2022-08-23T22:23:46.048Z,19.30
2022-08-23T22:26:19.424Z,19.30
2022-08-23T22:28:52.311Z,19.30
2022-08-23T22:31:25.051Z,19.20
2022-08-23T22:33:57.860Z,19.10
2022-08-23T22:36:31.166Z,19.10
2022-08-23T22:39:04.637Z,19.00
2022-08-23T22:41:38.191Z,18.90
2022-08-23T22:44:10.978Z,19.00
2022-08-23T22:46:43.927Z,18.90
2022-08-23T22:49:16.863Z,18.90
2022-08-23T22:51:55.041Z,18.90
2022-08-23T22:54:28.158Z,18.90
2022-08-23T22:57:00.658Z,18.90
2022-08-23T22:59:35.515Z,18.90
2022-08-23T23:02:08.769Z,18.90
2022-08-23T23:04:43.921Z,19.00
2022-08-23T23:07:38.668Z,18.90
2022-08-23T23:10:11.674Z,19.00
2022-08-23T23:12:44.212Z,19.00
2022-08-23T23:15:17.071Z,19.10
2022-08-23T23:17:49.615Z,19.10
2022-08-23T23:20:38.765Z,19.10
2022-08-23T23:23:14.898Z,19.10
2022-08-23T23:25:49.158Z,19.20
2022-08-23T23:28:22.346Z,19.20
2022-08-23T23:30:57.679Z,19.20
2022-08-23T23:33:30.279Z,19.20
2022-08-23T23:36:03.323Z,19.20
2022-08-23T23:38:35.867Z,19.20
2022-08-23T23:41:09.627Z,19.20
2022-08-23T23:43:42.294Z,19.20
2022-08-23T23:46:17.518Z,19.30
2022-08-23T23:48:51.390Z,19.30
2022-08-23T23:51:27.492Z,19.30
2022-08-23T23:54:01.071Z,19.30
2022-08-23T23:56:34.511Z,19.30
2022-08-23T23:59:07.124Z,19.20
